Hallock, MN

4:59 AM CDT on August 17, 2017 (GMT -0500)
Hallock Municipal

Weather History for KHCO - August, 2013

Change the Weather History Date:

Sunday, August 18, 2013

  Actual Average Record
Temperature  
Mean Temperature 74 °F -  
Max Temperature 82 °F 79 °F 98 °F (2003)
Min Temperature 66 °F 52 °F 32 °F (1942)
Cooling Degree Days 9    
Growing Degree Days 24 (Base 50)    
Moisture  
Dew Point 68 °F    
Average Humidity 87    
Maximum Humidity 100    
Minimum Humidity 70    
Precipitation  
Precipitation 0.00 in - - ()
Sea Level Pressure  
Sea Level Pressure 29.84 in    
Wind  
Wind Speed 10 mph (SSE)    
Max Wind Speed 22 mph    
Max Gust Speed 29 mph    
Visibility 10 miles    
Events Rain , Thunderstorm    
Averages and records for this station are not official NWS values.
T = Trace of Precipitation, MM = Missing Value Source: NWS Daily Summary

Daily Weather History Graph

Daily Weather History Graph

Search for Another Location

Airport or City:

Trip Planner

Search our weather history database for the weather conditions in past years. The results will help you decide how hot, cold, wet, or windy it might be!

Date:

Astronomy

Aug. 18, 2013 Rise Set
Actual Time 6:25 AM CDT 8:36 PM CDT
Civil Twilight 5:50 AM CDT 9:10 PM CDT
Nautical Twilight 5:08 AM CDT 9:53 PM CDT
Astronomical Twilight 4:19 AM CDT 10:41 PM CDT
Moon 6:48 PM CDT (8/18) 3:28 AM CDT (8/18)
Length of Visible Light 15h 20m
Length of Day
14h 11m
Waxing Gibbous, 92% of the Moon is Illuminated
Aug 18
Waxing Gibbous
Aug 20
Full
Aug 28
Last Quarter
Sep 5
New
Sep 12
First Quarter

Hourly Weather History & Observations

Time (CDT) Temp. Heat Index Dew Point Humidity Pressure Visibility Wind Dir Wind Speed Gust Speed Precip Events Conditions
12:13 AM 69.8 °F - 66.2 °F 88% 29.88 in 10.0 mi South 10.4 mph - N/A   Clear
12:33 AM 69.8 °F - 66.2 °F 88% 29.88 in 10.0 mi South 10.4 mph 17.3 mph N/A   Clear
12:53 AM 69.8 °F - 66.2 °F 88% 29.88 in 10.0 mi South 10.4 mph - N/A   Clear
1:13 AM 69.8 °F - 66.2 °F 88% 29.88 in 10.0 mi South 10.4 mph - N/A   Clear
1:33 AM 69.8 °F - 66.2 °F 88% 29.88 in 10.0 mi South 10.4 mph - N/A   Clear
1:54 AM 69.8 °F - 66.2 °F 88% 29.88 in 10.0 mi South 10.4 mph 17.3 mph N/A   Clear
2:13 AM 69.8 °F - 66.2 °F 88% 29.87 in 10.0 mi South 11.5 mph 17.3 mph N/A   Clear
2:33 AM 69.8 °F - 66.2 °F 88% 29.88 in 10.0 mi South 9.2 mph - N/A   Clear
2:52 AM 69.8 °F - 66.2 °F 88% 29.88 in 10.0 mi South 10.4 mph - N/A   Clear
3:13 AM 69.8 °F - 66.2 °F 88% 29.88 in 10.0 mi South 11.5 mph - N/A   Clear
3:33 AM 69.8 °F - 66.2 °F 88% 29.87 in 10.0 mi South 9.2 mph - N/A   Clear
3:53 AM 69.8 °F - 66.2 °F 88% 29.87 in 10.0 mi South 10.4 mph - N/A   Clear
4:13 AM 69.8 °F - 66.2 °F 88% 29.87 in 10.0 mi South 9.2 mph - N/A   Clear
4:33 AM 69.8 °F - 66.2 °F 88% 29.87 in 10.0 mi South 11.5 mph - N/A   Clear
4:53 AM 69.8 °F - 66.2 °F 88% 29.87 in 10.0 mi South 8.1 mph - N/A   Clear
5:13 AM 68.0 °F - 66.2 °F 94% 29.87 in 10.0 mi SSE 9.2 mph - N/A   Clear
5:33 AM 68.0 °F - 66.2 °F 94% 29.86 in 10.0 mi SSE 11.5 mph - N/A   Clear
5:53 AM 68.0 °F - 66.2 °F 94% 29.86 in 10.0 mi SSE 11.5 mph - N/A   Clear
6:13 AM 66.2 °F - 66.2 °F 100% 29.86 in 10.0 mi SSE 11.5 mph - N/A   Clear
6:33 AM 66.2 °F - 64.4 °F 94% 29.86 in 10.0 mi SSE 12.7 mph - N/A   Clear
6:53 AM 66.2 °F - 64.4 °F 94% 29.86 in 10.0 mi South 13.8 mph - N/A   Clear
7:13 AM 66.2 °F - 64.4 °F 94% 29.86 in 10.0 mi SSE 11.5 mph 18.4 mph N/A   Clear
7:33 AM 66.2 °F - 64.4 °F 94% 29.86 in 10.0 mi South 11.5 mph 17.3 mph N/A   Clear
7:53 AM 66.2 °F - 64.4 °F 94% 29.86 in 10.0 mi South 13.8 mph 18.4 mph N/A   Clear
8:13 AM 68.0 °F - 66.2 °F 94% 29.86 in 10.0 mi South 11.5 mph 19.6 mph N/A   Clear
8:33 AM 69.8 °F - 66.2 °F 88% 29.86 in 10.0 mi South 15.0 mph 18.4 mph N/A   Clear
8:53 AM 69.8 °F - 66.2 °F 88% 29.85 in 10.0 mi South 12.7 mph 20.7 mph N/A   Clear
9:13 AM 71.6 °F - 66.2 °F 83% 29.84 in 10.0 mi South 15.0 mph 20.7 mph N/A   Clear
9:33 AM 71.6 °F - 66.2 °F 83% 29.83 in 10.0 mi South 16.1 mph 21.9 mph N/A   Clear
9:53 AM 71.6 °F - 66.2 °F 83% 29.80 in 10.0 mi South 21.9 mph 25.3 mph N/A   Clear
10:13 AM 73.4 °F - 66.2 °F 78% 29.80 in 10.0 mi South 16.1 mph 28.8 mph N/A   Clear
10:33 AM 73.4 °F - 66.2 °F 78% 29.83 in 10.0 mi South 15.0 mph 21.9 mph N/A   Scattered Clouds
10:53 AM 75.2 °F - 68.0 °F 78% 29.83 in 10.0 mi South 13.8 mph 23.0 mph N/A   Scattered Clouds
11:13 AM 73.4 °F - 68.0 °F 83% 29.83 in 10.0 mi South 12.7 mph - N/A   Mostly Cloudy
11:33 AM 73.4 °F - 68.0 °F 83% 29.85 in 10.0 mi SSW 9.2 mph - N/A   Overcast
11:53 AM 73.4 °F - 68.0 °F 83% 29.86 in 10.0 mi South 8.1 mph - N/A   Overcast
12:14 PM 73.4 °F - 68.0 °F 83% 29.86 in 10.0 mi SSE 6.9 mph - N/A   Overcast
12:33 PM 73.4 °F - 69.8 °F 88% 29.85 in 10.0 mi SSE 6.9 mph - N/A   Overcast
12:53 PM 73.4 °F - 69.8 °F 88% 29.84 in 10.0 mi SSE 5.8 mph - N/A   Overcast
1:14 PM 75.2 °F - 69.8 °F 83% 29.84 in 10.0 mi SSE 5.8 mph - N/A   Overcast
1:33 PM 75.2 °F - 69.8 °F 83% 29.85 in 10.0 mi South 3.5 mph - N/A   Overcast
1:53 PM 75.2 °F - 69.8 °F 83% 29.85 in 10.0 mi SSE 3.5 mph - N/A   Overcast
2:14 PM 75.2 °F - 71.6 °F 89% 29.84 in 10.0 mi Calm Calm - N/A   Overcast
2:33 PM 75.2 °F - 69.8 °F 83% 29.84 in 10.0 mi NE 4.6 mph - N/A Thunderstorm Thunderstorm
2:53 PM 71.6 °F - 68.0 °F 88% 29.84 in 10.0 mi East 6.9 mph - N/A   Overcast
3:13 PM 71.6 °F - 66.2 °F 83% 29.84 in 10.0 mi ENE 12.7 mph 16.1 mph N/A   Overcast
3:33 PM 73.4 °F - 68.0 °F 83% 29.82 in 10.0 mi ESE 12.7 mph - N/A   Scattered Clouds
3:53 PM 75.2 °F - 69.8 °F 83% 29.81 in 10.0 mi ESE 8.1 mph - N/A   Clear
4:13 PM 78.8 °F - 71.6 °F 78% 29.81 in 10.0 mi ESE 3.5 mph - N/A   Clear
4:34 PM 80.6 °F 84.6 °F 71.6 °F 74% 29.80 in 10.0 mi East 3.5 mph - N/A   Clear
4:53 PM 80.6 °F 84.6 °F 71.6 °F 74% 29.80 in 10.0 mi East 3.5 mph - N/A   Clear
5:13 PM 82.4 °F 87.2 °F 71.6 °F 70% 29.80 in 10.0 mi Calm Calm - N/A   Clear
5:33 PM 82.4 °F 87.2 °F 71.6 °F 70% 29.81 in 10.0 mi NNW 3.5 mph - N/A   Clear
5:53 PM 82.4 °F 87.2 °F 71.6 °F 70% 29.81 in 10.0 mi North 5.8 mph - N/A   Scattered Clouds
6:13 PM 82.4 °F 88.2 °F 73.4 °F 74% 29.81 in 10.0 mi North 9.2 mph - N/A   Scattered Clouds
6:33 PM 80.6 °F 84.6 °F 71.6 °F 74% 29.81 in 10.0 mi North 8.1 mph - N/A   Scattered Clouds
6:53 PM 80.6 °F 84.6 °F 71.6 °F 74% 29.82 in 10.0 mi North 9.2 mph - N/A   Clear
7:13 PM 78.8 °F - 71.6 °F 78% 29.81 in 10.0 mi North 10.4 mph - N/A Thunderstorm Clear
7:33 PM 78.8 °F - 71.6 °F 78% 29.81 in 10.0 mi North 8.1 mph - N/A   Clear
7:53 PM 75.2 °F - 71.6 °F 89% 29.83 in 10.0 mi NNE 5.8 mph - N/A   Clear
8:13 PM 75.2 °F - 71.6 °F 89% 29.83 in 10.0 mi NE 4.6 mph - N/A Thunderstorm Clear
8:33 PM 73.4 °F - 71.6 °F 94% 29.83 in 10.0 mi NE 3.5 mph - N/A   Clear
8:53 PM 73.4 °F - 71.6 °F 94% 29.83 in 10.0 mi ENE 3.5 mph - N/A   Clear
9:13 PM 71.6 °F - 69.8 °F 94% 29.83 in 10.0 mi Calm Calm - N/A   Clear
9:33 PM 71.6 °F - 69.8 °F 94% 29.84 in 10.0 mi East 3.5 mph - N/A Rain Light Rain
9:53 PM 71.6 °F - 71.6 °F 100% 29.83 in 10.0 mi East 4.6 mph - N/A   Clear
10:13 PM 73.4 °F - 71.6 °F 94% 29.82 in 10.0 mi SE 3.5 mph - N/A   Clear
10:33 PM 71.6 °F - 69.8 °F 94% 29.83 in 10.0 mi SE 5.8 mph - N/A   Clear
10:53 PM 71.6 °F - 69.8 °F 94% 29.83 in 10.0 mi SSE 6.9 mph - N/A   Clear
11:13 PM 69.8 °F - 68.0 °F 94% 29.83 in 7.0 mi SSE 5.8 mph - N/A   Clear
11:33 PM 68.0 °F - 66.2 °F 94% 29.83 in 7.0 mi Calm Calm - N/A   Clear
11:53 PM 66.2 °F - 66.2 °F 100% 29.84 in 7.0 mi Calm Calm - N/A   Clear